Time;durP1;ratioP1;P1;durP2;ratioP2;P2;SDS_P1;SDS_P2;PMS_P1;PMS_P2;Temp;Humidity;BMP_temperature;BMP_pressure;BME280_temperature;BME280_humidity;BME280_pressure;Samples;Min_cycle;Max_cycle;Signal;HPM_P1;HPM_P2
2024/03/15 00:00:04;;;;;;;15.63;6.53;;;;;;;5.73;100.00;100835.63;5121546;27;20019;-70
2024/03/15 00:02:31;;;;;;;16.08;7.00;;;;;;;5.68;100.00;100823.03;5125002;27;20108;-70
2024/03/15 00:04:56;;;;;;;9.77;5.53;;;;;;;5.65;100.00;100826.69;5127239;27;20185;-70
2024/03/15 00:07:22;;;;;;;14.30;6.15;;;;;;;5.60;100.00;100822.75;5127839;27;20031;-70
2024/03/15 00:09:48;;;;;;;10.73;5.55;;;;;;;5.58;100.00;100828.00;5113381;28;20043;-70
2024/03/15 00:12:14;;;;;;;15.20;6.60;;;;;;;5.58;100.00;100822.84;5109406;27;20042;-70
2024/03/15 00:14:43;;;;;;;16.98;6.78;;;;;;;5.54;100.00;100826.56;5129320;27;20027;-70
2024/03/15 00:17:09;;;;;;;17.90;5.93;;;;;;;5.50;100.00;100819.94;5125319;27;20031;-70
2024/03/15 00:19:35;;;;;;;11.25;6.00;;;;;;;5.49;100.00;100817.47;5127492;27;20031;-70
2024/03/15 00:22:01;;;;;;;15.48;6.30;;;;;;;5.44;100.00;100822.13;5126669;27;20046;-70
2024/03/15 00:24:26;;;;;;;10.07;6.10;;;;;;;5.42;100.00;100818.81;5113217;27;20042;-70
2024/03/15 00:26:52;;;;;;;13.40;6.40;;;;;;;5.39;100.00;100829.34;5133427;27;20027;-70
2024/03/15 00:29:18;;;;;;;10.90;5.75;;;;;;;5.38;100.00;100831.09;5131449;27;20516;-70
2024/03/15 00:31:44;;;;;;;18.13;7.05;;;;;;;5.36;100.00;100821.78;5133535;27;20443;-70
2024/03/15 00:34:10;;;;;;;15.27;6.70;;;;;;;5.33;100.00;100818.50;5131984;27;20114;-70
2024/03/15 00:36:35;;;;;;;17.15;6.00;;;;;;;5.32;100.00;100819.41;5132656;27;20122;-70
2024/03/15 00:39:03;;;;;;;17.55;6.65;;;;;;;5.33;100.00;100820.25;5132889;27;20462;-70
2024/03/15 00:41:28;;;;;;;13.25;7.00;;;;;;;5.32;100.00;100823.75;5096137;27;20032;-70
2024/03/15 00:43:54;;;;;;;12.95;6.00;;;;;;;5.31;100.00;100819.50;5132899;27;20133;-70
2024/03/15 00:46:22;;;;;;;11.75;5.82;;;;;;;5.31;100.00;100824.69;5131188;27;20035;-70
2024/03/15 00:48:49;;;;;;;13.48;6.32;;;;;;;5.25;100.00;100820.75;5125407;27;20034;-70
2024/03/15 00:51:14;;;;;;;12.25;5.43;;;;;;;5.16;100.00;100815.38;5132671;27;20042;-70
2024/03/15 00:53:40;;;;;;;17.10;6.50;;;;;;;5.12;100.00;100808.75;5129796;27;20500;-70
2024/03/15 00:56:06;;;;;;;22.05;6.47;;;;;;;5.06;100.00;100809.16;5129399;27;20038;-70
2024/03/15 00:58:33;;;;;;;11.52;5.80;;;;;;;5.07;100.00;100797.91;5128356;27;20107;-70
2024/03/15 01:00:59;;;;;;;11.80;5.18;;;;;;;5.05;100.00;100802.34;5129497;27;20042;-70
2024/03/15 01:03:25;;;;;;;14.90;5.78;;;;;;;5.05;100.00;100799.75;5107350;27;20394;-70
2024/03/15 01:05:51;;;;;;;14.75;4.95;;;;;;;5.06;100.00;100796.25;5111860;27;20042;-70
2024/03/15 01:08:18;;;;;;;10.48;5.15;;;;;;;5.05;100.00;100794.59;5129708;27;20035;-70
2024/03/15 01:10:45;;;;;;;14.25;5.28;;;;;;;4.96;100.00;100794.28;5129489;27;20074;-70
2024/03/15 01:13:11;;;;;;;18.45;5.43;;;;;;;4.96;100.00;100790.88;5110003;27;20452;-70
2024/03/15 01:15:37;;;;;;;18.70;5.43;;;;;;;4.95;100.00;100795.19;5129140;27;20045;-70
2024/03/15 01:18:03;;;;;;;13.43;5.60;;;;;;;4.96;100.00;100790.88;5129530;27;20031;-70
2024/03/15 01:20:29;;;;;;;11.45;4.65;;;;;;;4.92;100.00;100786.81;5128416;27;20039;-70
2024/03/15 01:22:55;;;;;;;10.30;5.20;;;;;;;4.86;100.00;100793.22;5135708;27;20023;-70
2024/03/15 01:25:21;;;;;;;16.17;5.63;;;;;;;4.84;100.00;100792.47;5133815;27;20030;-70
2024/03/15 01:27:47;;;;;;;11.75;5.43;;;;;;;4.87;100.00;100792.28;5132077;27;20042;-70
2024/03/15 01:30:12;;;;;;;8.30;4.65;;;;;;;4.86;100.00;100782.88;5129585;27;20027;-70
2024/03/15 01:32:37;;;;;;;13.50;4.63;;;;;;;4.83;100.00;100777.91;5132552;27;20378;-70
2024/03/15 01:35:03;;;;;;;11.13;5.28;;;;;;;4.83;100.00;100780.50;5129297;27;20094;-70
2024/03/15 01:37:29;;;;;;;10.57;4.78;;;;;;;4.83;100.00;100785.66;5131617;27;20034;-70
2024/03/15 01:39:54;;;;;;;12.52;5.38;;;;;;;4.83;100.00;100785.66;5124148;27;20031;-70
2024/03/15 01:42:20;;;;;;;9.15;4.43;;;;;;;4.83;100.00;100790.84;5130001;27;20067;-70
2024/03/15 01:44:53;;;;;;;10.57;4.65;;;;;;;4.83;100.00;100777.09;5131180;27;20543;-70
2024/03/15 01:47:20;;;;;;;8.48;4.35;;;;;;;4.80;100.00;100778.13;5127099;27;20035;-70
2024/03/15 01:49:47;;;;;;;5.57;3.63;;;;;;;4.76;100.00;100781.81;5129562;27;20035;-70
2024/03/15 01:52:13;;;;;;;15.50;5.13;;;;;;;4.77;100.00;100778.31;5128131;27;20402;-70
2024/03/15 01:54:39;;;;;;;7.78;4.30;;;;;;;4.75;100.00;100771.59;5129738;27;20030;-70
2024/03/15 01:57:06;;;;;;;11.68;4.22;;;;;;;4.74;100.00;100770.78;5124123;27;20053;-70
2024/03/15 01:59:32;;;;;;;8.93;4.10;;;;;;;4.73;100.00;100769.13;5128422;27;20067;-70
2024/03/15 02:02:04;;;;;;;7.63;3.40;;;;;;;4.72;100.00;100775.25;5128846;27;20047;-70
2024/03/15 02:04:36;;;;;;;10.60;4.43;;;;;;;4.71;100.00;100765.84;5129944;27;20496;-70
2024/03/15 02:07:01;;;;;;;13.30;4.72;;;;;;;4.67;100.00;100772.13;5122463;27;20041;-70
2024/03/15 02:09:30;;;;;;;11.13;4.15;;;;;;;4.64;100.00;100767.97;5121755;27;20106;-70
2024/03/15 02:11:55;;;;;;;11.43;5.05;;;;;;;4.65;100.00;100763.66;5119732;27;20084;-70
2024/03/15 02:14:21;;;;;;;10.30;5.05;;;;;;;4.66;100.00;100768.72;5117865;27;20110;-70
2024/03/15 02:16:47;;;;;;;18.33;4.93;;;;;;;4.66;100.00;100760.13;5128540;27;20084;-70
2024/03/15 02:19:14;;;;;;;8.93;4.60;;;;;;;4.67;100.00;100761.81;5119598;27;20494;-70
2024/03/15 02:21:43;;;;;;;8.70;4.65;;;;;;;4.70;100.00;100756.44;5131439;27;20035;-70
2024/03/15 02:24:08;;;;;;;8.30;3.92;;;;;;;4.67;100.00;100761.81;5129807;27;20445;-70
2024/03/15 02:26:34;;;;;;;11.98;4.55;;;;;;;4.63;100.00;100756.00;5131218;27;20058;-70
2024/03/15 02:29:02;;;;;;;9.57;4.25;;;;;;;4.64;100.00;100759.41;5129587;27;20026;-70
2024/03/15 02:31:28;;;;;;;12.32;4.68;;;;;;;4.63;100.00;100765.50;5111436;27;20023;-70
2024/03/15 02:33:56;;;;;;;13.30;4.68;;;;;;;4.58;100.00;100757.22;5129562;27;20031;-70
2024/03/15 02:36:22;;;;;;;9.48;3.83;;;;;;;4.60;100.00;100761.38;5125303;27;20031;-70
2024/03/15 02:38:47;;;;;;;11.55;5.10;;;;;;;4.57;100.00;100758.16;5130081;27;20023;-70
2024/03/15 02:41:15;;;;;;;8.15;4.40;;;;;;;4.54;100.00;100753.19;5129000;27;20511;-70
2024/03/15 02:43:41;;;;;;;10.30;5.00;;;;;;;4.55;100.00;100752.25;5128149;27;20127;-70
2024/03/15 02:46:06;;;;;;;13.05;4.63;;;;;;;4.56;100.00;100753.91;5127495;27;20037;-70
2024/03/15 02:48:32;;;;;;;13.80;4.53;;;;;;;4.55;100.00;100757.44;5127263;27;20035;-70
2024/03/15 02:51:01;;;;;;;13.52;5.78;;;;;;;4.51;100.00;100755.97;5123640;27;20052;-70
2024/03/15 02:53:27;;;;;;;13.48;6.13;;;;;;;4.47;100.00;100757.91;5124981;27;20034;-70
2024/03/15 02:55:53;;;;;;;10.63;4.55;;;;;;;4.46;100.00;100750.28;5126686;27;20023;-70
2024/03/15 02:58:20;;;;;;;9.45;4.38;;;;;;;4.47;100.00;100754.50;5128355;27;20107;-70
2024/03/15 03:00:46;;;;;;;10.10;4.40;;;;;;;4.44;100.00;100760.69;5126645;27;20099;-70
2024/03/15 03:03:12;;;;;;;7.88;3.63;;;;;;;4.39;100.00;100761.91;5126301;27;20987;-70
2024/03/15 03:05:37;;;;;;;7.65;4.22;;;;;;;4.39;100.00;100764.47;5129245;27;20050;-70
2024/03/15 03:08:04;;;;;;;8.00;4.10;;;;;;;4.37;100.00;100766.34;5126370;27;20027;-70
2024/03/15 03:10:30;;;;;;;9.75;4.07;;;;;;;4.38;100.00;100770.56;5127391;27;20039;-70
2024/03/15 03:12:55;;;;;;;11.75;3.85;;;;;;;4.38;100.00;100768.00;5125857;27;20039;-70
2024/03/15 03:15:21;;;;;;;8.15;3.33;;;;;;;4.32;100.00;100764.88;5129732;27;23885;-70
2024/03/15 03:17:46;;;;;;;8.75;3.10;;;;;;;4.29;100.00;100762.47;5126969;27;20069;-70
2024/03/15 03:20:18;;;;;;;9.48;3.67;;;;;;;4.32;100.00;100767.44;5126361;27;20035;-70
2024/03/15 03:22:44;;;;;;;5.63;3.50;;;;;;;4.34;100.00;100764.78;5127872;27;20116;-70
2024/03/15 03:25:10;;;;;;;7.68;3.40;;;;;;;4.29;100.00;100759.91;5128849;27;20019;-70
2024/03/15 03:27:35;;;;;;;8.27;3.90;;;;;;;4.24;100.00;100764.56;5126383;27;20485;-70
2024/03/15 03:30:02;;;;;;;8.02;2.70;;;;;;;4.21;100.00;100758.75;5132070;27;20023;-70
2024/03/15 03:32:27;;;;;;;7.82;3.45;;;;;;;4.22;100.00;100761.25;5125812;27;20031;-70
2024/03/15 03:34:53;;;;;;;6.55;3.45;;;;;;;4.21;100.00;100769.06;5130436;27;20045;-70
2024/03/15 03:37:19;;;;;;;7.30;3.92;;;;;;;4.17;100.00;100771.00;5126824;27;20035;-70
2024/03/15 03:39:46;;;;;;;7.50;3.58;;;;;;;4.20;100.00;100773.41;5129680;27;20462;-70
2024/03/15 03:42:11;;;;;;;8.73;4.00;;;;;;;4.21;100.00;100758.75;5125454;27;20512;-70
2024/03/15 03:44:38;;;;;;;11.23;4.32;;;;;;;4.18;100.00;100756.38;5126871;27;20133;-70
2024/03/15 03:47:03;;;;;;;6.90;3.88;;;;;;;4.20;100.00;100765.66;5123580;27;20070;-70
2024/03/15 03:49:29;;;;;;;9.88;4.22;;;;;;;4.22;100.00;100765.56;5122800;27;20066;-70
2024/03/15 03:51:57;;;;;;;6.00;3.50;;;;;;;4.20;100.00;100764.84;5133415;27;20474;-70
2024/03/15 03:54:24;;;;;;;10.30;4.25;;;;;;;4.17;100.00;100752.97;5133055;27;20035;-70
2024/03/15 03:56:50;;;;;;;17.17;4.35;;;;;;;4.13;100.00;100751.50;5129465;27;20027;-70
2024/03/15 03:59:15;;;;;;;12.10;4.15;;;;;;;4.17;100.00;100760.69;5133059;27;20027;-70
2024/03/15 04:01:40;;;;;;;10.00;3.53;;;;;;;4.18;100.00;100752.03;5115605;27;20046;-70
2024/03/15 04:04:06;;;;;;;8.43;3.65;;;;;;;4.15;100.00;100754.81;5141069;27;20470;-70
2024/03/15 04:06:31;;;;;;;8.50;3.60;;;;;;;4.13;100.00;100751.50;5134081;27;20479;-70
2024/03/15 04:08:57;;;;;;;9.27;3.78;;;;;;;4.13;100.00;100754.06;5133771;27;20122;-70
2024/03/15 04:11:23;;;;;;;12.40;4.80;;;;;;;4.13;100.00;100751.50;5133123;27;20043;-70
2024/03/15 04:13:52;;;;;;;14.27;4.82;;;;;;;4.15;100.00;100759.97;5129874;27;20061;-70
2024/03/15 04:16:21;;;;;;;11.45;5.10;;;;;;;4.22;100.00;100750.09;5132820;27;20046;-70
2024/03/15 04:18:47;;;;;;;12.35;5.20;;;;;;;4.30;100.00;100753.81;5132556;27;20070;-70
2024/03/15 04:21:13;;;;;;;12.43;4.07;;;;;;;4.23;100.00;100757.75;5111597;27;20185;-70
2024/03/15 04:23:38;;;;;;;7.97;4.15;;;;;;;4.21;100.00;100759.59;5131079;27;20541;-70
2024/03/15 04:26:05;;;;;;;12.05;5.35;;;;;;;4.29;100.00;100753.91;5131521;27;20115;-70
2024/03/15 04:28:32;;;;;;;13.52;6.03;;;;;;;4.64;100.00;100767.16;5129534;27;20038;-70
2024/03/15 04:30:57;;;;;;;17.33;6.40;;;;;;;4.68;100.00;100766.03;5112880;27;20080;-70
2024/03/15 04:33:23;;;;;;;13.88;6.10;;;;;;;4.54;100.00;100771.25;5113121;27;20039;-70
2024/03/15 04:35:50;;;;;;;10.65;5.25;;;;;;;4.44;100.00;100765.84;5132085;27;20085;-70
2024/03/15 04:38:16;;;;;;;13.68;5.43;;;;;;;4.63;100.00;100765.50;5106031;27;20045;-70
2024/03/15 04:40:42;;;;;;;18.20;6.63;;;;;;;5.08;100.00;100771.16;5134218;27;20049;-70
2024/03/15 04:43:07;;;;;;;21.52;7.45;;;;;;;5.52;100.00;100766.41;5130709;27;20039;-70
2024/03/15 04:45:33;;;;;;;18.83;6.90;;;;;;;5.67;100.00;100762.75;5132662;27;20147;-70
2024/03/15 04:48:00;;;;;;;16.23;5.57;;;;;;;5.51;100.00;100769.09;5106958;28;20082;-70
2024/03/15 04:50:26;;;;;;;12.45;6.20;;;;;;;5.27;100.00;100766.38;5114716;27;20031;-70
2024/03/15 04:52:53;;;;;;;11.90;5.35;;;;;;;5.06;100.00;100778.19;5131928;27;20076;-70
2024/03/15 04:55:20;;;;;;;12.13;5.20;;;;;;;4.84;100.00;100774.41;5130827;27;20126;-70
2024/03/15 04:57:48;;;;;;;10.27;4.68;;;;;;;4.73;100.00;100783.78;5133068;27;20144;-70
2024/03/15 05:00:20;;;;;;;12.70;4.30;;;;;;;4.62;100.00;100779.34;5131242;27;20439;-70
2024/03/15 05:02:47;;;;;;;17.10;4.10;;;;;;;4.47;100.00;100772.56;5131975;27;20305;-70
2024/03/15 05:05:14;;;;;;;9.48;4.40;;;;;;;4.34;100.00;100775.91;5132192;27;20076;-70
2024/03/15 05:07:40;;;;;;;8.35;3.78;;;;;;;4.29;100.00;100777.97;5131179;27;20398;-70
2024/03/15 05:10:06;;;;;;;9.73;3.55;;;;;;;4.23;100.00;100777.53;5131490;27;20133;-70
2024/03/15 05:12:32;;;;;;;14.23;3.85;;;;;;;4.14;100.00;100778.94;5130679;27;20547;-70
2024/03/15 05:14:57;;;;;;;11.02;4.13;;;;;;;4.20;100.00;100773.41;5130711;27;20117;-70
2024/03/15 05:17:23;;;;;;;10.90;3.70;;;;;;;4.29;100.00;100761.66;5132184;27;20026;-70
2024/03/15 05:19:48;;;;;;;6.45;2.80;;;;;;;4.29;100.00;100772.78;5131388;27;20023;-70
2024/03/15 05:22:14;;;;;;;10.10;4.15;;;;;;;4.28;100.00;100765.16;5132668;27;20045;-70
2024/03/15 05:24:39;;;;;;;15.40;3.88;;;;;;;4.38;100.00;100768.81;5135644;27;20113;-70
2024/03/15 05:27:05;;;;;;;9.85;3.80;;;;;;;4.43;100.00;100768.53;5131527;27;20051;-70
2024/03/15 05:29:30;;;;;;;7.05;3.38;;;;;;;4.44;100.00;100772.75;5132534;27;20032;-70
2024/03/15 05:31:56;;;;;;;17.90;4.57;;;;;;;4.48;100.00;100769.88;5133019;27;20599;-70
2024/03/15 05:34:21;;;;;;;12.23;3.78;;;;;;;4.50;100.00;100769.78;5111675;27;20039;-70
2024/03/15 05:36:46;;;;;;;9.07;3.67;;;;;;;4.50;100.00;100764.63;5131092;27;20035;-70
2024/03/15 05:39:12;;;;;;;9.45;4.43;;;;;;;4.63;100.00;100773.25;5128951;27;20073;-70
2024/03/15 05:41:40;;;;;;;10.93;4.72;;;;;;;4.85;100.00;100778.66;5128193;27;20035;-70
2024/03/15 05:44:06;;;;;;;9.82;4.03;;;;;;;4.85;100.00;100780.41;5126503;27;20023;-70
2024/03/15 05:46:32;;;;;;;10.45;4.05;;;;;;;4.81;100.00;100772.03;5127980;27;20119;-69
2024/03/15 05:48:58;;;;;;;9.32;5.18;;;;;;;4.83;100.00;100777.91;5127639;27;20506;-70
2024/03/15 05:51:23;;;;;;;8.80;4.28;;;;;;;4.85;100.00;100780.41;5128740;27;20955;-69
2024/03/15 05:53:49;;;;;;;16.42;5.90;;;;;;;4.84;100.00;100779.56;5126649;27;20027;-69
2024/03/15 05:56:18;;;;;;;19.90;6.50;;;;;;;5.14;100.00;100779.31;5124568;27;20030;-69
2024/03/15 05:58:44;;;;;;;26.30;6.03;;;;;;;5.59;100.00;100780.56;5128077;27;20027;-69
2024/03/15 06:01:11;;;;;;;18.80;7.55;;;;;;;5.86;100.00;100785.56;5124132;27;20031;-69
2024/03/15 06:03:36;;;;;;;16.80;6.78;;;;;;;5.97;100.00;100782.28;5122570;27;20394;-70
2024/03/15 06:06:07;;;;;;;28.70;8.68;;;;;;;6.11;100.00;100784.72;5127686;27;20028;-69
2024/03/15 06:08:32;;;;;;;11.93;6.18;;;;;;;6.21;100.00;100785.72;5127103;27;20038;-69
2024/03/15 06:10:58;;;;;;;16.50;7.25;;;;;;;6.27;100.00;100795.63;5130750;27;20039;-69
2024/03/15 06:13:25;;;;;;;15.40;7.13;;;;;;;6.36;100.00;100798.50;5131731;27;20042;-69
2024/03/15 06:15:50;;;;;;;16.88;8.05;;;;;;;6.44;100.00;100803.97;5126551;27;20039;-69
2024/03/15 06:18:16;;;;;;;17.30;7.30;;;;;;;6.60;100.00;100801.94;5129907;27;20027;-69
2024/03/15 06:20:41;;;;;;;18.75;7.47;;;;;;;6.70;100.00;100796.88;5117175;27;20039;-69
2024/03/15 06:23:07;;;;;;;18.63;6.50;;;;;;;6.82;100.00;100807.19;5125214;27;20371;-70
2024/03/15 06:25:32;;;;;;;23.98;7.68;;;;;;;6.91;100.00;100810.88;5130476;27;20029;-70
2024/03/15 06:28:06;;;;;;;28.98;6.93;;;;;;;6.94;100.00;100808.06;5126445;27;20027;-69
2024/03/15 06:30:33;;;;;;;18.38;7.13;;;;;;;6.98;100.00;100814.66;5122622;27;20092;-69
2024/03/15 06:32:59;;;;;;;12.43;5.28;;;;;;;6.93;100.00;100809.00;5127885;27;20031;-69
2024/03/15 06:35:27;;;;;;;12.75;4.78;;;;;;;6.93;100.00;100809.81;5112426;27;20031;-70
2024/03/15 06:37:57;;;;;;;17.52;5.55;;;;;;;7.07;100.00;100819.16;5131223;27;20031;-69
2024/03/15 06:40:42;;;;;;;12.13;5.93;;;;;;;7.18;100.00;100818.34;5130317;27;20508;-69
2024/03/15 06:48:20;;;;;;;24.85;5.38;;;;;;;7.65;100.00;100825.97;5128759;27;20039;-69
2024/03/15 06:50:48;;;;;;;14.13;5.25;;;;;;;7.85;100.00;100824.44;5118332;27;20401;-69
2024/03/15 06:53:17;;;;;;;9.35;4.28;;;;;;;7.97;100.00;100827.88;5122131;27;20108;-69
2024/03/15 06:55:43;;;;;;;10.27;4.53;;;;;;;8.03;100.00;100831.75;5126821;27;20030;-70
2024/03/15 06:58:09;;;;;;;14.88;5.88;;;;;;;7.92;100.00;100825.63;5125383;27;20031;-70
2024/03/15 07:00:35;;;;;;;15.55;6.68;;;;;;;7.85;100.00;100821.03;5111109;27;20122;-69
2024/03/15 07:03:01;;;;;;;19.55;6.57;;;;;;;7.87;100.00;100825.16;5126720;27;20085;-70
2024/03/15 07:05:28;;;;;;;18.58;7.47;;;;;;;7.91;100.00;100825.75;5127621;27;20065;-70
2024/03/15 07:07:53;;;;;;;24.15;6.75;;;;;;;8.01;100.00;100834.47;5131070;27;20031;-70
2024/03/15 07:10:19;;;;;;;22.70;7.00;;;;;;;8.03;100.00;100827.41;5127028;27;20092;-69
2024/03/15 07:12:46;;;;;;;18.45;8.35;;;;;;;8.08;100.00;100822.66;5128238;27;20027;-70
2024/03/15 07:15:15;;;;;;;21.13;8.20;;;;;;;8.14;100.00;100824.75;5126834;27;20037;-69
2024/03/15 07:17:43;;;;;;;19.40;7.15;;;;;;;8.25;100.00;100827.34;5107402;28;20035;-70
2024/03/15 07:20:12;;;;;;;19.45;7.10;;;;;;;8.49;100.00;100826.41;5125685;27;20052;-70
2024/03/15 07:22:38;;;;;;;17.17;6.50;;;;;;;8.69;100.00;100829.97;5121289;27;20027;-70
2024/03/15 07:25:05;;;;;;;18.08;7.05;;;;;;;8.86;100.00;100830.28;5125739;27;20096;-70
2024/03/15 07:27:31;;;;;;;17.50;6.85;;;;;;;8.90;100.00;100829.06;5128480;27;20031;-70
2024/03/15 07:32:19;;;;;;;13.90;6.53;;;;;;;9.01;100.00;100835.16;5104303;27;20438;-68
2024/03/15 07:34:44;;;;;;;17.45;6.32;;;;;;;9.08;100.00;100842.31;5065046;28;20124;-68
2024/03/15 07:37:11;;;;;;;17.60;5.68;;;;;;;9.25;100.00;100848.75;5063332;28;20477;-68
2024/03/15 07:39:37;;;;;;;13.20;5.30;;;;;;;9.27;100.00;100836.44;5059605;28;20132;-68
2024/03/15 07:42:02;;;;;;;19.98;5.65;;;;;;;9.18;100.00;100837.19;5065683;28;20021;-68
2024/03/15 07:44:28;;;;;;;32.45;6.38;;;;;;;9.11;100.00;100842.06;5066651;28;20036;-68
2024/03/15 07:46:56;;;;;;;15.93;6.50;;;;;;;9.20;100.00;100846.53;5064336;28;20512;-68
2024/03/15 07:49:23;;;;;;;14.27;6.82;;;;;;;9.37;100.00;100852.94;5057523;28;20041;-68
2024/03/15 07:51:49;;;;;;;16.02;5.93;;;;;;;9.58;100.00;100856.34;5052032;28;20037;-68
2024/03/15 07:54:18;;;;;;;18.42;6.97;;;;;;;9.67;100.00;100862.53;5057949;28;20044;-68
2024/03/15 07:56:43;;;;;;;13.75;6.15;;;;;;;9.77;100.00;100854.78;5055041;28;20507;-69
2024/03/15 07:59:09;;;;;;;13.55;5.47;;;;;;;9.77;100.00;100854.78;5056184;28;20041;-68
2024/03/15 08:01:34;;;;;;;15.05;4.72;;;;;;;9.79;99.78;100853.72;5062735;28;20036;-68
2024/03/15 08:04:00;;;;;;;19.58;5.78;;;;;;;9.86;97.77;100849.63;5065278;28;20103;-68
2024/03/15 08:06:26;;;;;;;14.85;5.45;;;;;;;10.03;98.53;100850.78;5062137;28;20391;-68
2024/03/15 08:08:51;;;;;;;15.82;5.25;;;;;;;10.23;99.01;100859.53;5066575;28;20170;-68
2024/03/15 08:11:17;;;;;;;11.20;4.68;;;;;;;10.52;99.29;100859.56;5063536;28;20036;-68
2024/03/15 08:13:43;;;;;;;11.25;4.78;;;;;;;10.85;97.14;100858.41;5056097;28;20041;-68
2024/03/15 08:16:33;;;;;;;13.77;5.13;;;;;;;11.10;98.24;100854.41;5051714;28;20040;-68
2024/03/15 08:18:59;;;;;;;15.40;4.60;;;;;;;11.34;98.93;100864.41;5051040;28;20164;-68
2024/03/15 08:21:24;;;;;;;11.73;3.97;;;;;;;11.44;99.45;100859.97;5052856;28;20033;-68
2024/03/15 08:23:50;;;;;;;12.82;5.40;;;;;;;11.59;99.42;100859.38;5053805;28;20036;-68
2024/03/15 08:26:15;;;;;;;17.38;4.38;;;;;;;11.85;98.37;100861.38;5053528;28;20060;-68
2024/03/15 08:28:40;;;;;;;21.40;4.80;;;;;;;11.96;97.53;100862.03;5057670;28;20021;-68
2024/03/15 08:31:07;;;;;;;17.50;4.25;;;;;;;12.06;97.54;100867.22;5058060;28;20489;-68
2024/03/15 08:33:32;;;;;;;12.57;3.60;;;;;;;12.03;97.32;100870.13;5057127;28;20479;-68
2024/03/15 08:35:59;;;;;;;16.35;4.45;;;;;;;11.94;97.49;100861.34;5059963;28;20067;-69
2024/03/15 08:38:25;;;;;;;30.25;5.05;;;;;;;11.85;97.30;100862.22;5061499;28;20434;-68
2024/03/15 08:40:50;;;;;;;8.40;3.38;;;;;;;11.79;97.73;100864.59;5061424;28;20025;-68
2024/03/15 08:43:16;;;;;;;9.65;3.45;;;;;;;11.67;97.02;100869.13;5044761;28;20079;-68
2024/03/15 08:45:41;;;;;;;6.05;3.35;;;;;;;11.68;96.87;100872.56;5050075;28;20029;-68
2024/03/15 08:48:07;;;;;;;13.13;3.45;;;;;;;11.67;94.69;100869.13;5046377;28;20033;-68
2024/03/15 08:50:32;;;;;;;7.60;2.45;;;;;;;11.56;91.27;100864.88;5046952;28;20037;-68
2024/03/15 08:52:59;;;;;;;14.27;5.85;;;;;;;11.55;93.00;100863.25;5047629;28;20033;-68
2024/03/15 08:55:25;;;;;;;9.50;4.05;;;;;;;11.52;92.70;100857.47;5045418;28;20050;-68
2024/03/15 08:57:50;;;;;;;12.35;4.40;;;;;;;11.51;92.58;100864.50;5046038;28;20025;-68
2024/03/15 09:00:16;;;;;;;16.33;4.90;;;;;;;11.51;93.42;100861.88;5041919;28;20029;-68
2024/03/15 09:02:42;;;;;;;13.40;3.70;;;;;;;11.42;87.55;100860.09;5047836;28;20024;-69
2024/03/15 09:05:10;;;;;;;12.00;4.55;;;;;;;11.49;91.83;100869.03;5043525;28;20376;-69
2024/03/15 09:07:38;;;;;;;13.57;4.35;;;;;;;11.54;91.41;100855.56;5046477;28;20029;-68
2024/03/15 09:10:16;;;;;;;15.40;5.03;;;;;;;11.67;94.25;100858.69;5045002;28;20029;-69
2024/03/15 09:12:46;;;;;;;16.27;5.78;;;;;;;11.68;93.36;100867.34;5042740;28;20029;-68
2024/03/15 09:15:12;;;;;;;10.93;5.97;;;;;;;11.66;91.45;100869.28;5042850;28;20037;-68
2024/03/15 09:17:41;;;;;;;12.40;5.60;;;;;;;11.69;92.45;100866.38;5046907;28;20384;-68
2024/03/15 09:22:42;;;;;;;8.40;3.75;;;;;;;11.74;92.88;100867.59;5046350;28;20372;-68
2024/03/15 09:25:11;;;;;;;10.70;4.22;;;;;;;11.86;94.15;100861.25;5038505;28;20033;-69
2024/03/15 09:27:36;;;;;;;7.97;3.15;;;;;;;11.66;88.02;100870.09;5044092;28;20028;-69
2024/03/15 09:30:16;;;;;;;7.05;2.42;;;;;;;11.64;87.15;100866.78;5047010;28;20073;-68
2024/03/15 09:32:44;;;;;;;5.60;1.80;;;;;;;11.82;89.90;100864.28;5035291;28;20042;-68
2024/03/15 09:35:13;;;;;;;4.57;1.27;;;;;;;11.83;79.80;100866.75;5042776;28;20040;-69
2024/03/15 09:37:51;;;;;;;5.07;1.65;;;;;;;11.98;88.32;100869.72;5046761;28;20087;-69
2024/03/15 09:40:28;;;;;;;5.35;1.20;;;;;;;12.08;87.60;100867.91;5042425;28;20029;-69
2024/03/15 09:42:54;;;;;;;4.00;0.75;;;;;;;12.05;86.46;100862.97;5045375;28;20366;-69
2024/03/15 09:45:23;;;;;;;1.85;0.75;;;;;;;12.15;88.56;100873.38;5045648;28;20524;-68
2024/03/15 09:47:50;;;;;;;5.72;0.98;;;;;;;12.25;88.14;100872.38;5044734;28;20567;-68
2024/03/15 09:50:17;;;;;;;3.58;1.05;;;;;;;12.38;87.23;100879.00;5045132;28;20393;-68
2024/03/15 09:52:43;;;;;;;2.65;0.60;;;;;;;12.32;86.18;100882.22;5041132;28;20031;-68
2024/03/15 09:55:16;;;;;;;3.13;0.82;;;;;;;12.37;86.89;100883.41;5041829;28;20034;-68
2024/03/15 09:57:43;;;;;;;3.10;0.77;;;;;;;12.51;87.52;100876.88;5047331;28;20036;-68
2024/03/15 10:00:30;;;;;;;2.45;0.52;;;;;;;12.57;86.47;100877.13;5047115;28;20385;-68
2024/03/15 10:02:56;;;;;;;3.30;0.50;;;;;;;12.66;87.42;100875.41;5044588;28;20029;-68
2024/03/15 10:05:22;;;;;;;3.17;0.50;;;;;;;12.73;86.57;100876.47;5045280;28;20041;-68
2024/03/15 10:07:49;;;;;;;3.08;0.47;;;;;;;12.82;86.87;100878.16;5047549;28;20020;-68
2024/03/15 10:10:16;;;;;;;1.88;0.52;;;;;;;12.91;86.49;100882.50;5041109;28;20043;-68
2024/03/15 10:12:46;;;;;;;2.70;0.57;;;;;;;12.92;86.91;100881.53;5047571;28;20110;-70
2024/03/15 10:15:21;;;;;;;2.22;0.52;;;;;;;12.91;87.52;100879.06;5045784;28;20049;-68
2024/03/15 10:17:51;;;;;;;2.00;0.55;;;;;;;12.89;87.12;100881.84;5041878;28;20025;-68
2024/03/15 10:20:22;;;;;;;3.13;0.70;;;;;;;12.90;87.07;100886.09;5046345;28;20492;-68
2024/03/15 10:22:51;;;;;;;1.58;0.40;;;;;;;12.79;85.04;100883.69;5042398;28;20037;-68
2024/03/15 10:25:22;;;;;;;1.52;0.57;;;;;;;12.70;86.53;100879.38;5041805;28;20039;-68
2024/03/15 10:27:54;;;;;;;4.20;0.85;;;;;;;12.74;87.73;100875.50;5040303;28;20546;-68
2024/03/15 10:30:28;;;;;;;4.70;0.50;;;;;;;12.84;87.91;100878.03;5034948;28;20454;-68
2024/03/15 10:32:55;;;;;;;3.05;0.40;;;;;;;12.90;87.33;100886.09;5043728;28;20035;-68
2024/03/15 10:35:27;;;;;;;2.88;0.60;;;;;;;13.00;86.78;100882.59;5041530;28;20033;-68
2024/03/15 10:37:53;;;;;;;4.18;0.80;;;;;;;13.06;84.21;100887.22;5048738;28;20036;-68
2024/03/15 10:40:21;;;;;;;2.28;0.70;;;;;;;13.19;86.49;100882.47;5048373;28;20053;-68
2024/03/15 10:42:54;;;;;;;2.95;0.88;;;;;;;13.31;86.36;100876.00;5046632;28;20116;-68
2024/03/15 10:45:21;;;;;;;3.10;0.98;;;;;;;13.44;85.94;100875.59;5047343;28;20037;-68
2024/03/15 10:47:47;;;;;;;4.22;1.10;;;;;;;13.51;85.14;100876.66;5049205;28;20037;-68
2024/03/15 10:50:22;;;;;;;4.00;1.02;;;;;;;13.63;85.39;100879.84;5048546;28;20036;-68
2024/03/15 10:52:49;;;;;;;4.85;1.25;;;;;;;13.73;84.60;100875.28;5047996;28;20037;-68
2024/03/15 10:55:23;;;;;;;4.05;1.13;;;;;;;13.75;85.23;100882.00;5047681;28;20538;-68
2024/03/15 10:57:52;;;;;;;4.22;0.57;;;;;;;13.76;84.85;100882.84;5040786;28;20039;-68
2024/03/15 11:00:19;;;;;;;2.80;1.02;;;;;;;13.74;85.19;100882.16;5043063;28;20025;-68
2024/03/15 11:02:45;;;;;;;3.08;0.80;;;;;;;13.70;85.25;100888.72;5042004;28;20044;-68
2024/03/15 11:05:20;;;;;;;3.70;0.93;;;;;;;13.59;84.75;100888.00;5043834;28;20036;-68
2024/03/15 11:07:48;;;;;;;2.97;1.05;;;;;;;13.55;84.22;100894.50;5039078;28;20029;-69
2024/03/15 11:10:14;;;;;;;8.65;0.75;;;;;;;13.54;85.00;100887.63;5043635;28;20044;-68
2024/03/15 11:12:40;;;;;;;2.90;0.73;;;;;;;13.49;82.86;100889.88;5044437;28;20021;-68
2024/03/15 11:15:17;;;;;;;3.70;0.90;;;;;;;13.50;84.75;100891.53;5045187;28;20021;-68
2024/03/15 11:17:43;;;;;;;3.95;0.50;;;;;;;13.37;83.40;100890.28;5044418;28;20029;-68
2024/03/15 11:20:12;;;;;;;4.07;0.70;;;;;;;13.45;84.34;100892.97;5044537;28;20039;-68
2024/03/15 11:22:38;;;;;;;2.55;0.40;;;;;;;13.51;83.29;100890.56;5043143;28;20076;-68
2024/03/15 11:25:06;;;;;;;2.17;0.50;;;;;;;13.61;83.70;100882.59;5043439;28;20111;-68
2024/03/15 11:27:47;;;;;;;2.70;0.40;;;;;;;13.69;82.35;100884.47;5040839;28;20389;-68